East Prospect, Pennsylvania
Current Conditions -  °F | °C
As of 6:53 PM on Saturday 22 Nov 2014 (Local Time) from KLNS Reporting Station
Overcast Overcast  
Wind Chill: 33°   Ceiling: 7000
Heat Index: 37°   Visibility: 10mi
Dew Point: 22°   Wind: 5mph
Humidity: 54%   Direction: 140°SE
Pressure: 30.27"   Gusts: NA
Location:  39.97°N, 76.52°W
Report Text: KLNS 222353Z 14004KT 10SM OVC070 03/M06 A3027 RMK AO2 SLP254 60000 T00281056 10056 20028 57003
Loading
Personal Weather Stations






























Interactive Weather Map New forecast layout! Learn more

10-Day Weather Forecast

Advertisements
Track Severe Weather on mobile